Řízení letového provozu České republiky
Letiste: LKCV Aktualizace: 20.10.2018 23:01:06  UTC
 METAR LKCV 20.10. 23:00 ...
METAR LKCV 202300Z 26006KT CAVOK 07/03 Q1028 NOSIG RMK BLU BLU=
 TAF LKCV 20.10. 17:00 ...
TAF LKCV 201700Z 2018/2118 35006KT CAVOK      BECMG 2023/2101 28004KT 9999 SCT035      PROB30 TEMPO 2104/2108 4000 BR BKN008      BECMG 2110/2112 36004KT=